Time;durP1;ratioP1;P1;durP2;ratioP2;P2;SDS_P1;SDS_P2;PMS_P1;PMS_P2;Temp;Humidity;BMP_temperature;BMP_pressure;BME280_temperature;BME280_humidity;BME280_pressure;Samples;Min_cycle;Max_cycle;Signal;HPM_P1;HPM_P2
2024/03/19 00:00:14;;;;;;;37.60;19.23;;;6.40;99.90;;;;;;5059693;28;20036;-63
2024/03/19 00:02:59;;;;;;;40.58;18.70;;;6.30;99.90;;;;;;5057800;28;20044;-63
2024/03/19 00:05:45;;;;;;;39.17;18.17;;;6.30;99.90;;;;;;5053268;28;20087;-63
2024/03/19 00:08:31;;;;;;;36.75;17.85;;;6.20;99.90;;;;;;5052326;28;20332;-64
2024/03/19 00:11:19;;;;;;;41.95;18.33;;;6.20;99.90;;;;;;5057897;28;20386;-64
2024/03/19 00:14:04;;;;;;;45.42;19.45;;;6.10;99.90;;;;;;5055993;28;20037;-63
2024/03/19 00:16:50;;;;;;;42.72;17.92;;;6.10;99.90;;;;;;5054433;28;20037;-63
2024/03/19 00:19:37;;;;;;;44.50;18.90;;;6.00;99.90;;;;;;5043407;28;20036;-63
2024/03/19 00:22:23;;;;;;;49.35;19.63;;;6.00;99.90;;;;;;5042078;28;20083;-63
2024/03/19 00:25:08;;;;;;;43.17;19.08;;;6.00;99.90;;;;;;5040186;28;20463;-63
2024/03/19 00:27:54;;;;;;;47.95;20.40;;;5.90;99.90;;;;;;5042220;28;20229;-63
2024/03/19 00:30:40;;;;;;;38.70;17.90;;;5.90;99.90;;;;;;5041934;28;20029;-63
2024/03/19 00:33:26;;;;;;;48.72;18.77;;;5.80;99.90;;;;;;5041258;28;20122;-63
2024/03/19 00:36:12;;;;;;;42.63;17.98;;;5.80;99.90;;;;;;5044448;28;20039;-63
2024/03/19 00:38:58;;;;;;;41.78;18.23;;;5.70;99.90;;;;;;5044907;28;20051;-63
2024/03/19 00:41:44;;;;;;;38.97;17.95;;;5.70;99.90;;;;;;5042480;28;20039;-63
2024/03/19 00:44:30;;;;;;;29.60;13.05;;;5.60;99.90;;;;;;5044604;28;20147;-63
2024/03/19 00:47:16;;;;;;;46.60;17.25;;;5.60;99.90;;;;;;5050407;28;20110;-63
2024/03/19 00:50:02;;;;;;;39.35;15.75;;;5.60;99.90;;;;;;5040662;28;20063;-63
2024/03/19 00:52:48;;;;;;;43.22;17.40;;;5.60;99.90;;;;;;5043242;28;20090;-63
2024/03/19 00:55:35;;;;;;;43.67;17.88;;;5.60;99.90;;;;;;5042516;28;20052;-63
2024/03/19 00:58:21;;;;;;;43.28;16.38;;;5.50;99.90;;;;;;5046316;28;20045;-61
2024/03/19 01:01:07;;;;;;;49.85;17.92;;;5.50;99.90;;;;;;5042947;28;20044;-61
2024/03/19 01:03:53;;;;;;;45.70;17.83;;;5.40;99.90;;;;;;5046819;28;20420;-61
2024/03/19 01:06:39;;;;;;;42.80;15.98;;;5.40;99.90;;;;;;5042531;28;20296;-60
2024/03/19 01:09:25;;;;;;;42.15;16.55;;;5.30;99.90;;;;;;5048305;28;20033;-60
2024/03/19 01:12:11;;;;;;;42.58;14.95;;;5.30;99.90;;;;;;5040793;28;20037;-60
2024/03/19 01:14:57;;;;;;;36.25;14.75;;;5.30;99.90;;;;;;5043846;28;20107;-61
2024/03/19 01:17:43;;;;;;;37.10;15.55;;;5.30;99.90;;;;;;5044540;28;20064;-61
2024/03/19 01:20:28;;;;;;;38.05;14.90;;;5.20;99.90;;;;;;5040325;28;20033;-61
2024/03/19 01:23:14;;;;;;;34.33;12.77;;;5.20;99.90;;;;;;5041305;28;20112;-61
2024/03/19 01:26:02;;;;;;;30.90;14.77;;;5.20;99.90;;;;;;5044482;28;20029;-60
2024/03/19 01:28:48;;;;;;;33.40;13.07;;;5.20;99.90;;;;;;5041487;28;20093;-62
2024/03/19 01:31:34;;;;;;;40.95;13.77;;;5.10;99.90;;;;;;5033947;28;20037;-61
2024/03/19 01:34:20;;;;;;;29.85;12.93;;;5.10;99.90;;;;;;5047616;28;20419;-61
2024/03/19 01:37:06;;;;;;;32.42;13.48;;;5.10;99.90;;;;;;5031251;28;20045;-62
2024/03/19 01:39:54;;;;;;;33.45;12.73;;;5.10;99.90;;;;;;5043406;28;20029;-62
2024/03/19 01:42:40;;;;;;;32.90;11.98;;;5.10;99.90;;;;;;5056369;28;20048;-61
2024/03/19 01:45:26;;;;;;;30.40;13.40;;;5.10;99.90;;;;;;5050978;28;20098;-62
2024/03/19 01:48:12;;;;;;;32.10;12.40;;;5.00;99.90;;;;;;5050649;28;20458;-61
2024/03/19 01:50:58;;;;;;;31.70;11.18;;;5.00;99.90;;;;;;5056898;28;20497;-61
2024/03/19 01:53:45;;;;;;;34.58;12.05;;;5.00;99.90;;;;;;5054458;28;20034;-62
2024/03/19 01:56:31;;;;;;;33.53;12.60;;;5.00;99.90;;;;;;5054743;28;20072;-62
2024/03/19 01:59:17;;;;;;;28.55;10.85;;;5.00;99.90;;;;;;5052899;28;20043;-61
2024/03/19 02:02:04;;;;;;;27.13;11.13;;;5.00;99.90;;;;;;5043676;28;20045;-61
2024/03/19 02:04:50;;;;;;;25.80;10.88;;;4.90;99.90;;;;;;5042664;28;20044;-61
2024/03/19 02:07:36;;;;;;;34.53;10.93;;;4.90;99.90;;;;;;5040913;28;20040;-61
2024/03/19 02:10:22;;;;;;;30.27;11.20;;;4.90;99.90;;;;;;5041511;28;20032;-61
2024/03/19 02:13:09;;;;;;;29.13;10.40;;;4.90;99.90;;;;;;5040775;28;20502;-61
2024/03/19 02:15:55;;;;;;;26.98;10.35;;;4.90;99.90;;;;;;5039579;28;20037;-62
2024/03/19 02:18:41;;;;;;;33.63;10.40;;;4.90;99.90;;;;;;5041522;28;20033;-62
2024/03/19 02:21:27;;;;;;;23.40;10.07;;;4.90;99.90;;;;;;5042549;28;20957;-62
2024/03/19 02:24:13;;;;;;;25.10;9.23;;;4.80;99.90;;;;;;5040399;28;20089;-62
2024/03/19 02:26:59;;;;;;;17.77;8.52;;;4.80;99.90;;;;;;5039770;28;20037;-61
2024/03/19 02:29:45;;;;;;;27.42;9.88;;;4.80;99.90;;;;;;5039132;28;20037;-62
2024/03/19 02:32:31;;;;;;;21.55;9.30;;;4.80;99.90;;;;;;5036032;28;20037;-62
2024/03/19 02:35:17;;;;;;;20.80;8.35;;;4.80;99.90;;;;;;5037740;28;20041;-62
2024/03/19 02:38:03;;;;;;;23.70;8.10;;;4.80;99.90;;;;;;5035629;28;20410;-62
2024/03/19 02:40:48;;;;;;;19.53;7.57;;;4.80;99.90;;;;;;5034943;28;20706;-61
2024/03/19 02:43:36;;;;;;;16.75;7.80;;;4.70;99.90;;;;;;5035312;28;20055;-61
2024/03/19 02:46:24;;;;;;;22.05;8.68;;;4.70;99.90;;;;;;5039091;28;20037;-62
2024/03/19 02:49:09;;;;;;;20.73;8.15;;;4.70;99.90;;;;;;5036042;28;20112;-61
2024/03/19 02:51:55;;;;;;;19.30;8.07;;;4.60;99.90;;;;;;5037058;28;20036;-61
2024/03/19 02:54:41;;;;;;;21.52;7.35;;;4.60;99.90;;;;;;5037725;28;20037;-61
2024/03/19 02:57:27;;;;;;;17.17;7.40;;;4.60;99.90;;;;;;5035875;28;20122;-61
2024/03/19 03:00:13;;;;;;;17.40;7.05;;;4.50;99.90;;;;;;5034528;28;20029;-61
2024/03/19 03:02:59;;;;;;;16.10;6.80;;;4.50;99.90;;;;;;5033521;28;20072;-61
2024/03/19 03:05:45;;;;;;;15.27;6.70;;;4.40;99.90;;;;;;5035932;28;20033;-61
2024/03/19 03:08:31;;;;;;;11.55;4.68;;;4.40;99.90;;;;;;5036469;28;20459;-61
2024/03/19 03:11:17;;;;;;;17.23;6.20;;;4.40;99.90;;;;;;5036686;28;20179;-61
2024/03/19 03:14:03;;;;;;;14.77;5.35;;;4.30;99.90;;;;;;5032882;28;20029;-61
2024/03/19 03:16:49;;;;;;;16.65;6.72;;;4.30;99.90;;;;;;5036660;28;20043;-61
2024/03/19 03:19:35;;;;;;;18.83;6.28;;;4.30;99.90;;;;;;5038616;28;20041;-61
2024/03/19 03:22:22;;;;;;;15.05;6.05;;;4.30;99.90;;;;;;5035989;28;20599;-61
2024/03/19 03:25:11;;;;;;;16.80;5.80;;;4.30;99.90;;;;;;5033919;28;20061;-62
2024/03/19 03:27:58;;;;;;;19.20;5.90;;;4.30;99.90;;;;;;5032372;28;20112;-61
2024/03/19 03:30:43;;;;;;;16.63;5.15;;;4.30;99.90;;;;;;5032183;28;20038;-61
2024/03/19 03:33:30;;;;;;;15.70;5.88;;;4.30;99.90;;;;;;5027163;28;20532;-61
2024/03/19 03:36:16;;;;;;;16.95;5.32;;;4.30;99.90;;;;;;5035426;28;20553;-62
2024/03/19 03:39:04;;;;;;;12.50;4.80;;;4.30;99.90;;;;;;5034287;28;20075;-61
2024/03/19 03:41:50;;;;;;;14.10;5.78;;;4.30;99.90;;;;;;5038809;28;20037;-61
2024/03/19 03:44:36;;;;;;;17.77;5.78;;;4.20;99.90;;;;;;5031881;28;20124;-61
2024/03/19 03:47:22;;;;;;;15.73;6.18;;;4.10;99.90;;;;;;5032458;28;20523;-61
2024/03/19 03:50:09;;;;;;;13.63;5.63;;;4.10;99.90;;;;;;5033927;28;20098;-61
2024/03/19 03:52:55;;;;;;;14.95;5.80;;;4.00;99.90;;;;;;5031627;28;20657;-62
2024/03/19 03:55:41;;;;;;;18.08;5.88;;;4.00;99.90;;;;;;5042730;28;20176;-61
2024/03/19 03:58:27;;;;;;;13.00;5.47;;;3.90;99.90;;;;;;5037699;28;20052;-61
2024/03/19 04:01:13;;;;;;;20.57;5.47;;;4.00;99.90;;;;;;5046522;28;20123;-61
2024/03/19 04:03:59;;;;;;;15.30;5.50;;;3.90;99.90;;;;;;5051272;28;20287;-61
2024/03/19 04:06:45;;;;;;;8.95;4.00;;;3.90;99.90;;;;;;5056760;28;20045;-61
2024/03/19 04:09:31;;;;;;;14.40;4.30;;;3.90;99.90;;;;;;5057863;28;20044;-62
2024/03/19 04:12:17;;;;;;;9.63;3.42;;;3.90;99.90;;;;;;5054486;28;20035;-61
2024/03/19 04:15:07;;;;;;;11.85;3.90;;;3.90;99.90;;;;;;5056676;28;20036;-61
2024/03/19 04:17:57;;;;;;;12.80;4.80;;;4.00;99.90;;;;;;5057139;28;20434;-62
2024/03/19 04:20:51;;;;;;;16.90;4.00;;;4.00;99.90;;;;;;5063045;28;20032;-62
2024/03/19 04:23:36;;;;;;;15.60;3.60;;;3.90;99.90;;;;;;5061628;28;20502;-62
2024/03/19 04:26:22;;;;;;;12.70;3.80;;;4.00;99.90;;;;;;5057854;28;20113;-61
2024/03/19 04:29:16;;;;;;;8.00;3.17;;;3.90;99.90;;;;;;5057496;28;20840;-61
2024/03/19 04:32:01;;;;;;;8.57;3.42;;;3.90;99.90;;;;;;5046018;28;20036;-61
2024/03/19 04:34:47;;;;;;;8.67;3.63;;;3.90;99.90;;;;;;5044244;28;20064;-61
2024/03/19 04:37:33;;;;;;;9.57;3.60;;;3.90;99.90;;;;;;5043028;28;20029;-61
2024/03/19 04:40:21;;;;;;;10.35;3.42;;;3.90;99.90;;;;;;5043238;28;20044;-61
2024/03/19 04:43:07;;;;;;;11.35;3.67;;;3.90;99.90;;;;;;5043114;28;20037;-61
2024/03/19 04:45:53;;;;;;;7.30;3.08;;;3.90;99.90;;;;;;5045890;28;20048;-61
2024/03/19 04:48:38;;;;;;;6.22;2.83;;;3.90;99.90;;;;;;5045876;28;20029;-61
2024/03/19 04:51:26;;;;;;;7.68;2.83;;;4.00;99.90;;;;;;5043800;28;20365;-61
2024/03/19 04:54:11;;;;;;;10.05;3.20;;;4.00;99.90;;;;;;5044120;28;20092;-61
2024/03/19 04:56:57;;;;;;;6.88;3.00;;;4.00;99.90;;;;;;5041308;28;20749;-61
2024/03/19 04:59:43;;;;;;;7.70;3.00;;;3.90;99.90;;;;;;5046094;28;20086;-61
2024/03/19 05:02:29;;;;;;;11.48;3.47;;;4.00;99.90;;;;;;5041581;28;20040;-61
2024/03/19 05:05:15;;;;;;;12.25;3.20;;;4.00;99.90;;;;;;5043556;28;20037;-61
2024/03/19 05:08:01;;;;;;;13.07;3.30;;;4.00;99.90;;;;;;5043121;28;20103;-61
2024/03/19 05:10:49;;;;;;;6.13;2.42;;;4.00;99.90;;;;;;5041434;28;20067;-61
2024/03/19 05:13:35;;;;;;;12.43;3.78;;;4.00;99.90;;;;;;5041172;28;20025;-61
2024/03/19 05:16:21;;;;;;;6.57;3.42;;;4.00;99.90;;;;;;5038617;28;20033;-61
2024/03/19 05:19:07;;;;;;;10.57;3.30;;;4.00;99.90;;;;;;5040889;28;20524;-61
2024/03/19 05:21:53;;;;;;;12.45;3.35;;;4.00;99.90;;;;;;5039542;28;20490;-61
2024/03/19 05:24:40;;;;;;;8.30;3.45;;;4.10;99.90;;;;;;5042254;28;20028;-61
2024/03/19 05:27:26;;;;;;;11.40;3.20;;;4.10;99.90;;;;;;5039623;28;20094;-61
2024/03/19 05:30:12;;;;;;;11.73;3.58;;;4.20;99.90;;;;;;5041271;28;20456;-62
2024/03/19 05:32:59;;;;;;;7.38;3.55;;;4.30;99.90;;;;;;5033101;28;20518;-61
2024/03/19 05:35:45;;;;;;;9.55;4.10;;;4.40;99.90;;;;;;5037150;28;20041;-61
2024/03/19 05:38:30;;;;;;;9.50;4.33;;;4.40;99.90;;;;;;5030928;28;20037;-61
2024/03/19 05:41:16;;;;;;;10.23;3.85;;;4.60;99.90;;;;;;5022708;28;20505;-61
2024/03/19 05:44:03;;;;;;;15.93;4.40;;;4.60;99.90;;;;;;5035957;28;20041;-61
2024/03/19 05:46:49;;;;;;;7.60;3.65;;;4.70;99.90;;;;;;5033064;28;20295;-62
2024/03/19 05:49:35;;;;;;;8.20;2.90;;;4.80;99.90;;;;;;5040321;28;20086;-62
2024/03/19 05:52:21;;;;;;;10.40;3.30;;;4.80;99.90;;;;;;5030766;28;20033;-61
2024/03/19 05:55:07;;;;;;;4.90;2.28;;;4.70;99.90;;;;;;5031995;28;20045;-61
2024/03/19 05:57:53;;;;;;;6.38;2.90;;;4.70;99.90;;;;;;5021432;28;20091;-62
2024/03/19 06:00:39;;;;;;;9.48;2.80;;;4.70;99.90;;;;;;5036469;28;20037;-61
2024/03/19 06:03:27;;;;;;;5.50;2.55;;;4.80;99.90;;;;;;5037535;28;20673;-62
2024/03/19 06:06:13;;;;;;;7.85;2.60;;;4.80;99.90;;;;;;5039564;28;20033;-61
2024/03/19 06:08:59;;;;;;;7.90;3.40;;;4.80;99.90;;;;;;5037489;28;20125;-61
2024/03/19 06:11:47;;;;;;;5.90;3.20;;;4.80;99.90;;;;;;5027761;28;20449;-62
2024/03/19 06:14:34;;;;;;;6.30;3.15;;;4.80;99.90;;;;;;5035353;28;20392;-61
2024/03/19 06:17:19;;;;;;;10.43;3.00;;;4.80;99.90;;;;;;5032525;28;20422;-61
2024/03/19 06:20:14;;;;;;;6.10;2.83;;;4.90;99.90;;;;;;5036250;28;20048;-61
2024/03/19 06:23:00;;;;;;;7.07;2.47;;;4.90;99.90;;;;;;5031867;28;20111;-61
2024/03/19 06:25:46;;;;;;;6.88;3.55;;;5.00;99.90;;;;;;5034170;28;20036;-61
2024/03/19 06:28:31;;;;;;;7.13;2.72;;;5.10;99.90;;;;;;5032273;28;20044;-61
2024/03/19 06:31:17;;;;;;;9.90;3.75;;;5.20;99.90;;;;;;5034064;28;20139;-61
2024/03/19 06:34:04;;;;;;;6.00;2.47;;;5.10;99.90;;;;;;5034744;28;20028;-61
2024/03/19 06:36:52;;;;;;;7.05;3.13;;;5.20;99.90;;;;;;5040309;28;20041;-61
2024/03/19 06:39:38;;;;;;;8.63;2.97;;;5.40;99.90;;;;;;5033627;28;20045;-61
2024/03/19 06:42:23;;;;;;;6.13;2.63;;;5.50;99.90;;;;;;5033849;28;20068;-61
2024/03/19 06:45:10;;;;;;;7.95;2.15;;;5.70;99.90;;;;;;5035620;28;20772;-61
2024/03/19 06:47:56;;;;;;;11.82;2.60;;;5.70;99.90;;;;;;5032161;28;20568;-62
2024/03/19 06:50:42;;;;;;;10.40;2.40;;;5.90;99.90;;;;;;5039441;28;20029;-61
2024/03/19 06:53:28;;;;;;;7.50;2.22;;;5.90;99.90;;;;;;5034696;28;20466;-61
2024/03/19 06:56:14;;;;;;;9.55;2.75;;;6.00;99.90;;;;;;5036086;28;20033;-62
2024/03/19 06:58:59;;;;;;;5.93;2.33;;;6.00;99.90;;;;;;5027838;28;20060;-61
2024/03/19 07:01:45;;;;;;;7.82;2.30;;;6.00;99.90;;;;;;5044118;28;20032;-62
2024/03/19 07:04:31;;;;;;;6.80;2.67;;;6.10;99.90;;;;;;5050556;28;20422;-62
2024/03/19 07:07:17;;;;;;;7.55;2.55;;;6.20;99.90;;;;;;5048299;28;20114;-63
2024/03/19 07:10:04;;;;;;;8.57;2.87;;;6.30;99.90;;;;;;5049356;28;20397;-62
2024/03/19 07:12:51;;;;;;;7.22;2.80;;;6.40;99.90;;;;;;5046921;28;20274;-63
2024/03/19 07:15:38;;;;;;;8.00;2.70;;;6.40;99.90;;;;;;5047399;28;20073;-62
2024/03/19 07:18:24;;;;;;;5.88;2.15;;;6.60;99.90;;;;;;5044881;28;20106;-62
2024/03/19 07:21:10;;;;;;;10.25;2.90;;;6.60;99.90;;;;;;5053106;28;20033;-62
2024/03/19 07:23:55;;;;;;;6.65;2.80;;;6.70;99.90;;;;;;5049157;28;20525;-62
2024/03/19 07:26:41;;;;;;;6.47;2.90;;;6.70;99.90;;;;;;5042142;28;20692;-62
2024/03/19 07:29:27;;;;;;;5.75;2.38;;;6.80;99.90;;;;;;5042947;28;20089;-62
2024/03/19 07:32:13;;;;;;;8.10;2.67;;;6.90;99.90;;;;;;5056090;28;20036;-62
2024/03/19 07:34:59;;;;;;;6.75;2.53;;;7.10;99.90;;;;;;5065092;28;20097;-62
2024/03/19 07:37:45;;;;;;;7.13;2.40;;;7.20;99.90;;;;;;5047051;28;20028;-62
2024/03/19 07:40:31;;;;;;;11.05;2.65;;;7.30;99.90;;;;;;5051009;28;20128;-63
2024/03/19 07:43:18;;;;;;;9.73;2.80;;;7.40;99.90;;;;;;5055539;28;20425;-63
2024/03/19 07:46:04;;;;;;;4.20;2.08;;;7.50;99.90;;;;;;5057563;28;21127;-64
2024/03/19 07:48:50;;;;;;;10.02;2.25;;;7.70;99.90;;;;;;5058708;28;20036;-63
2024/03/19 07:51:35;;;;;;;16.63;2.58;;;7.90;99.90;;;;;;5053251;28;20327;-63
2024/03/19 07:54:27;;;;;;;6.60;2.40;;;8.10;99.90;;;;;;5050143;28;20644;-64
2024/03/19 07:57:13;;;;;;;6.90;2.67;;;8.20;99.90;;;;;;5055948;28;20042;-64
2024/03/19 08:00:09;;;;;;;6.73;2.63;;;8.30;99.90;;;;;;5054077;28;20060;-63
2024/03/19 08:02:55;;;;;;;7.80;2.58;;;8.50;99.90;;;;;;5038208;28;20033;-64
2024/03/19 08:05:40;;;;;;;4.40;2.22;;;8.60;99.90;;;;;;5034769;28;20439;-64
2024/03/19 08:08:26;;;;;;;5.70;2.33;;;8.90;99.90;;;;;;5034363;28;20029;-64
2024/03/19 08:11:14;;;;;;;6.75;2.85;;;9.00;99.90;;;;;;5032714;28;20430;-64
2024/03/19 08:14:00;;;;;;;4.72;2.40;;;9.20;99.90;;;;;;5035042;28;20025;-64
2024/03/19 08:16:46;;;;;;;6.30;2.03;;;9.40;99.90;;;;;;5033923;28;20087;-64
2024/03/19 08:19:32;;;;;;;6.95;1.95;;;9.50;99.90;;;;;;5033050;28;20037;-64
2024/03/19 08:22:18;;;;;;;7.57;2.77;;;10.10;99.90;;;;;;5034170;28;20033;-64
2024/03/19 08:25:06;;;;;;;8.45;2.20;;;10.80;99.90;;;;;;5034128;28;20033;-64
2024/03/19 08:27:51;;;;;;;9.50;2.10;;;11.00;99.90;;;;;;5032910;28;20112;-63
2024/03/19 08:30:37;;;;;;;11.48;2.60;;;11.30;99.90;;;;;;5032590;28;20049;-63
2024/03/19 08:33:23;;;;;;;7.00;2.53;;;11.30;99.90;;;;;;5038143;28;20033;-63
2024/03/19 08:36:10;;;;;;;6.22;1.98;;;11.30;99.90;;;;;;5034475;28;20116;-63
2024/03/19 08:38:56;;;;;;;4.78;1.83;;;11.30;99.90;;;;;;5050874;28;20032;-63
2024/03/19 08:41:42;;;;;;;8.65;1.75;;;11.10;99.90;;;;;;5034661;28;20617;-66
2024/03/19 08:44:28;;;;;;;5.95;2.53;;;11.10;99.90;;;;;;5048487;28;20102;-63
2024/03/19 08:47:14;;;;;;;12.10;3.50;;;11.10;99.90;;;;;;5042259;28;20037;-63
2024/03/19 08:50:00;;;;;;;4.55;2.65;;;11.20;99.90;;;;;;5031742;28;20130;-63
2024/03/19 08:52:46;;;;;;;9.10;4.88;;;11.40;99.90;;;;;;5035806;28;20103;-63
2024/03/19 08:55:32;;;;;;;7.88;4.30;;;11.40;99.90;;;;;;5034823;28;20033;-63
2024/03/19 08:58:18;;;;;;;7.85;4.40;;;11.60;99.90;;;;;;5033034;28;20076;-63
2024/03/19 09:01:05;;;;;;;11.32;5.72;;;11.70;99.90;;;;;;5039876;28;20784;-63
2024/03/19 09:03:53;;;;;;;12.10;6.80;;;11.90;99.90;;;;;;5056506;28;20025;-64
2024/03/19 09:06:39;;;;;;;16.08;6.28;;;12.10;99.90;;;;;;5057327;28;20036;-64
2024/03/19 09:09:27;;;;;;;13.82;6.45;;;12.20;99.90;;;;;;5046955;28;20045;-63
2024/03/19 09:12:15;;;;;;;18.20;6.10;;;12.40;99.90;;;;;;5034218;28;20402;-64
2024/03/19 09:15:01;;;;;;;13.40;5.75;;;12.60;99.90;;;;;;5040037;28;20029;-63
2024/03/19 09:17:47;;;;;;;16.67;5.87;;;12.60;99.90;;;;;;5032906;28;20462;-63
2024/03/19 09:20:34;;;;;;;15.40;4.97;;;12.60;99.90;;;;;;5033646;28;20275;-63
2024/03/19 09:23:19;;;;;;;;;;;12.60;99.90;;;;;;5037546;28;20045;-63
2024/03/19 09:26:05;;;;;;;9.98;5.57;;;12.70;99.90;;;;;;5030925;28;20615;-63
2024/03/19 09:28:51;;;;;;;15.00;5.80;;;12.70;99.90;;;;;;5029076;28;20021;-63
2024/03/19 09:31:37;;;;;;;15.02;5.88;;;12.60;99.90;;;;;;5043103;28;20085;-63
2024/03/19 09:34:23;;;;;;;12.35;5.63;;;12.50;99.90;;;;;;5049907;28;20471;-63
2024/03/19 09:37:09;;;;;;;13.00;5.70;;;12.50;99.90;;;;;;5051052;28;20497;-63
2024/03/19 09:39:55;;;;;;;16.95;5.40;;;12.50;99.90;;;;;;5052797;28;20033;-63
2024/03/19 09:42:41;;;;;;;10.27;5.63;;;12.60;99.90;;;;;;5053909;28;20048;-63
2024/03/19 09:45:29;;;;;;;14.05;5.30;;;12.60;99.90;;;;;;5050481;28;20048;-64
2024/03/19 09:48:15;;;;;;;15.02;5.68;;;12.60;99.90;;;;;;5046278;28;20032;-64
2024/03/19 09:51:01;;;;;;;14.20;5.22;;;12.60;99.90;;;;;;5042309;28;20033;-63
2024/03/19 09:53:47;;;;;;;11.60;4.93;;;12.60;99.90;;;;;;5050635;28;20537;-63
2024/03/19 09:56:34;;;;;;;14.25;4.10;;;12.60;99.90;;;;;;5043989;28;20071;-64
2024/03/19 09:59:20;;;;;;;17.73;4.78;;;12.60;99.90;;;;;;5052134;28;20645;-63
2024/03/19 10:02:17;;;;;;;13.80;5.90;;;12.70;99.90;;;;;;5056458;28;20077;-63
2024/03/19 10:05:04;;;;;;;10.13;5.43;;;12.70;99.90;;;;;;5057584;28;20031;-63
2024/03/19 10:07:52;;;;;;;15.57;5.73;;;12.80;99.90;;;;;;5055692;28;20576;-63
2024/03/19 10:10:38;;;;;;;12.63;6.25;;;13.00;99.90;;;;;;5057862;28;20286;-64
2024/03/19 10:13:24;;;;;;;10.85;5.45;;;13.10;99.90;;;;;;5057593;28;20464;-64
2024/03/19 10:16:11;;;;;;;10.88;4.72;;;13.20;99.90;;;;;;5059560;28;20205;-63
2024/03/19 10:18:57;;;;;;;11.88;4.93;;;13.40;99.90;;;;;;5053921;28;20044;-64
2024/03/19 10:21:44;;;;;;;24.77;10.32;;;13.40;99.90;;;;;;5056992;28;20041;-64
2024/03/19 10:24:32;;;;;;;;;;;13.30;99.90;;;;;;5056659;28;20074;-64
2024/03/19 10:27:18;;;;;;;18.75;7.30;;;13.20;99.90;;;;;;5056161;28;19916;-64
2024/03/19 10:30:05;;;;;;;12.38;5.50;;;13.20;99.90;;;;;;5057493;28;20040;-64
2024/03/19 10:32:50;;;;;;;12.82;4.97;;;13.20;99.90;;;;;;4989296;28;20041;-64
2024/03/19 10:35:38;;;;;;;17.30;5.75;;;13.20;99.90;;;;;;5006355;28;20120;-64
2024/03/19 10:38:26;;;;;;;13.45;6.15;;;13.20;99.90;;;;;;4991106;28;20029;-64
2024/03/19 10:41:12;;;;;;;16.08;5.57;;;13.30;99.90;;;;;;5005357;28;20550;-64
2024/03/19 10:44:01;;;;;;;15.35;5.30;;;13.30;99.90;;;;;;5035103;28;20043;-64
2024/03/19 10:46:50;;;;;;;11.32;4.72;;;13.40;99.90;;;;;;5034605;28;20037;-64
2024/03/19 10:49:37;;;;;;;16.23;5.43;;;13.50;99.90;;;;;;5036443;28;20033;-64
2024/03/19 10:52:27;;;;;;;;;;;13.50;99.90;;;;;;5037630;28;20041;-64
2024/03/19 10:55:14;;;;;;;10.00;4.97;;;13.50;99.90;;;;;;5033403;28;19921;-64
2024/03/19 10:58:02;;;;;;;11.88;4.82;;;13.50;99.90;;;;;;5030904;28;20099;-63
2024/03/19 11:00:49;;;;;;;9.15;4.43;;;13.50;99.90;;;;;;5031784;28;20265;-64
2024/03/19 11:03:40;;;;;;;9.85;4.70;;;13.40;99.90;;;;;;5034847;28;20061;-64
2024/03/19 11:06:26;;;;;;;13.00;4.70;;;13.50;99.90;;;;;;5038261;28;20059;-63
2024/03/19 11:09:19;;;;;;;15.13;5.22;;;13.60;99.90;;;;;;5036019;28;20025;-64
2024/03/19 11:12:05;;;;;;;13.20;5.15;;;13.90;99.90;;;;;;5036596;28;20025;-63
2024/03/19 11:14:56;;;;;;;13.75;4.95;;;13.80;99.90;;;;;;5035750;28;20112;-66
2024/03/19 11:17:42;;;;;;;14.95;5.03;;;13.90;99.90;;;;;;5038035;28;20672;-63
2024/03/19 11:20:33;;;;;;;10.80;3.97;;;14.00;99.90;;;;;;5046706;28;20072;-63
2024/03/19 11:23:25;;;;;;;15.27;4.75;;;14.10;99.90;;;;;;5035893;28;20052;-63
2024/03/19 11:26:14;;;;;;;10.68;4.90;;;14.10;99.90;;;;;;5031727;28;20061;-63
2024/03/19 11:29:02;;;;;;;11.20;4.78;;;14.00;99.90;;;;;;5032359;28;20140;-64
2024/03/19 11:31:49;;;;;;;16.70;5.60;;;13.80;99.90;;;;;;5038482;28;20370;-63
2024/03/19 11:34:35;;;;;;;17.08;5.57;;;13.70;99.90;;;;;;5034428;28;20029;-64
2024/03/19 11:37:21;;;;;;;14.02;5.30;;;13.60;99.90;;;;;;5046979;28;20037;-64
2024/03/19 11:40:12;;;;;;;16.65;6.63;;;13.80;99.90;;;;;;5035908;28;20511;-64
2024/03/19 11:42:59;;;;;;;16.50;4.88;;;13.70;99.90;;;;;;5036984;28;20033;-63
2024/03/19 11:45:47;;;;;;;9.27;5.55;;;13.60;99.90;;;;;;5033034;28;20048;-64
2024/03/19 11:48:33;;;;;;;11.68;5.80;;;13.70;99.90;;;;;;5038664;28;20087;-64
2024/03/19 11:51:19;;;;;;;20.02;5.45;;;13.80;99.90;;;;;;5034983;28;20063;-63
2024/03/19 11:54:09;;;;;;;14.43;5.28;;;13.80;99.90;;;;;;5035487;28;20029;-63
2024/03/19 11:56:58;;;;;;;10.93;4.95;;;13.70;99.90;;;;;;5033159;28;20074;-63
2024/03/19 11:59:44;;;;;;;12.95;4.35;;;13.60;99.90;;;;;;5027490;28;20071;-63
2024/03/19 12:02:30;;;;;;;10.20;4.22;;;13.60;99.90;;;;;;5054918;28;20044;-63
2024/03/19 12:05:17;;;;;;;13.07;4.45;;;13.80;99.90;;;;;;5056876;28;20066;-64
2024/03/19 12:08:03;;;;;;;11.30;4.30;;;13.80;99.90;;;;;;5054579;28;20045;-64
2024/03/19 12:10:49;;;;;;;12.97;4.47;;;13.80;99.90;;;;;;5041080;28;20040;-64
2024/03/19 12:13:36;;;;;;;12.30;4.70;;;13.70;99.90;;;;;;5054475;28;20039;-63
2024/03/19 12:16:22;;;;;;;10.38;4.72;;;13.60;99.90;;;;;;5056782;28;20032;-63
2024/03/19 12:19:12;;;;;;;14.00;5.40;;;13.60;99.90;;;;;;5058888;28;20039;-63
2024/03/19 12:21:58;;;;;;;9.35;4.72;;;13.70;99.90;;;;;;5057015;28;20080;-63
2024/03/19 12:24:44;;;;;;;11.75;5.00;;;13.60;99.90;;;;;;5056568;28;20032;-64
2024/03/19 12:27:30;;;;;;;9.88;4.45;;;13.50;99.90;;;;;;5057109;28;20044;-63
2024/03/19 12:30:21;;;;;;;7.80;4.40;;;13.40;99.90;;;;;;5051200;28;20024;-64
2024/03/19 12:33:27;;;;;;;11.20;5.07;;;13.30;99.90;;;;;;5043117;28;20025;-64
2024/03/19 12:36:13;;;;;;;9.68;4.55;;;13.20;99.90;;;;;;5056567;28;20052;-65
2024/03/19 12:38:59;;;;;;;7.93;4.90;;;13.40;99.90;;;;;;5041669;28;20045;-62
2024/03/19 12:41:45;;;;;;;9.43;4.93;;;13.40;99.90;;;;;;5042600;28;20490;-63
2024/03/19 12:44:30;;;;;;;10.25;5.13;;;13.50;99.90;;;;;;5042546;28;20037;-64
2024/03/19 12:47:18;;;;;;;10.57;4.95;;;13.50;99.90;;;;;;5043825;28;20045;-64
2024/03/19 12:50:04;;;;;;;14.00;5.15;;;13.40;99.90;;;;;;5042516;28;20039;-63
2024/03/19 12:52:50;;;;;;;10.15;5.30;;;13.30;99.90;;;;;;5043192;28;20025;-66
2024/03/19 12:55:36;;;;;;;14.15;4.70;;;13.20;99.90;;;;;;5042061;28;20037;-64
2024/03/19 12:58:22;;;;;;;9.32;4.57;;;13.20;99.90;;;;;;5057317;28;20075;-64
2024/03/19 13:01:09;;;;;;;7.70;4.30;;;13.30;99.90;;;;;;5039178;28;20118;-64
2024/03/19 13:03:55;;;;;;;12.88;4.70;;;13.30;99.90;;;;;;5040078;28;20109;-63
2024/03/19 13:06:41;;;;;;;14.77;5.93;;;13.40;99.90;;;;;;5037456;28;20033;-63
2024/03/19 13:09:27;;;;;;;9.25;4.57;;;13.40;99.90;;;;;;5036172;28;20028;-63
2024/03/19 13:12:13;;;;;;;11.15;5.18;;;13.60;99.90;;;;;;5037108;28;20036;-63
2024/03/19 13:15:00;;;;;;;12.18;4.35;;;13.80;99.90;;;;;;5037847;28;20029;-63
2024/03/19 13:17:47;;;;;;;17.35;6.03;;;14.00;99.90;;;;;;5042182;28;20044;-63
2024/03/19 13:20:33;;;;;;;;;;;13.90;99.90;;;;;;5034835;28;20145;-63
2024/03/19 13:23:19;;;;;;;8.77;4.00;;;13.70;99.90;;;;;;5040456;28;19912;-64
2024/03/19 13:26:05;;;;;;;8.50;4.20;;;13.60;99.90;;;;;;5036780;28;20060;-63
2024/03/19 13:28:51;;;;;;;9.90;4.75;;;13.60;99.90;;;;;;5035475;28;20038;-63
2024/03/19 13:31:37;;;;;;;9.13;4.00;;;13.50;99.90;;;;;;5046477;28;20044;-63
2024/03/19 13:34:22;;;;;;;9.37;3.43;;;13.50;99.90;;;;;;5058472;28;20119;-62
2024/03/19 13:37:08;;;;;;;8.90;3.67;;;13.50;99.90;;;;;;5056981;28;20083;-64
2024/03/19 13:39:54;;;;;;;6.25;2.42;;;13.50;99.90;;;;;;5055283;28;20044;-65
2024/03/19 13:42:40;;;;;;;10.30;3.75;;;13.50;99.90;;;;;;5037951;22;20053;-65
2024/03/19 13:45:26;;;;;;;9.60;4.40;;;13.50;99.90;;;;;;5024262;28;20029;-66
2024/03/19 13:48:12;;;;;;;10.75;4.90;;;13.60;99.90;;;;;;5034963;28;20374;-65
2024/03/19 13:51:01;;;;;;;11.90;4.22;;;13.50;99.90;;;;;;5025037;28;20037;-66
2024/03/19 13:53:51;;;;;;;8.77;4.78;;;13.40;99.90;;;;;;5020826;28;20042;-66
2024/03/19 13:56:39;;;;;;;7.63;3.60;;;13.40;99.90;;;;;;5019033;28;20168;-65
2024/03/19 13:59:25;;;;;;;7.85;3.78;;;13.40;99.90;;;;;;5023007;28;20036;-67
2024/03/19 14:02:11;;;;;;;4.30;3.00;;;13.40;99.90;;;;;;5023954;28;20040;-62
2024/03/19 14:04:58;;;;;;;7.50;3.30;;;13.50;99.90;;;;;;5028116;28;20033;-63
2024/03/19 14:07:44;;;;;;;10.77;4.10;;;13.50;99.90;;;;;;5015430;28;20052;-64
2024/03/19 14:10:30;;;;;;;8.88;3.00;;;13.50;99.90;;;;;;5027320;28;20559;-65
2024/03/19 14:13:16;;;;;;;5.80;3.22;;;13.60;99.90;;;;;;5021033;28;20040;-62
2024/03/19 14:16:03;;;;;;;8.95;3.42;;;13.60;99.90;;;;;;5026643;28;20033;-65
2024/03/19 14:18:49;;;;;;;13.57;5.33;;;13.50;99.90;;;;;;5030680;28;20087;-61
2024/03/19 14:21:35;;;;;;;11.20;5.25;;;13.50;99.90;;;;;;5025064;28;20276;-61
2024/03/19 14:24:21;;;;;;;10.85;3.70;;;13.40;99.90;;;;;;5024007;28;20029;-62